Time;durP1;ratioP1;P1;durP2;ratioP2;P2;SDS_P1;SDS_P2;PMS_P1;PMS_P2;Temp;Humidity;BMP_temperature;BMP_pressure;BME280_temperature;BME280_humidity;BME280_pressure;Samples;Min_cycle;Max_cycle;Signal;HPM_P1;HPM_P2
2023/10/18 00:02:28;;;;;;;10.15;6.85;;;;;;;4.08;62.80;97922.81;10400172;28;20057;-73
2023/10/18 00:07:51;;;;;;;10.52;6.38;;;;;;;4.14;63.63;97928.16;10372504;28;20053;-72
2023/10/18 00:13:13;;;;;;;13.57;6.85;;;;;;;4.17;63.47;97911.25;10400145;28;20400;-72
2023/10/18 00:18:34;;;;;;;12.30;6.32;;;;;;;4.18;63.28;97914.75;10405529;28;20159;-72
2023/10/18 00:23:56;;;;;;;9.38;5.82;;;;;;;4.09;63.44;97916.00;10407178;28;20091;-72
2023/10/18 00:29:18;;;;;;;9.82;6.20;;;;;;;4.05;63.47;97915.59;10407297;28;20045;-72
2023/10/18 00:34:39;;;;;;;10.63;6.50;;;;;;;3.88;63.78;97910.59;10421373;28;20475;-72
2023/10/18 00:40:06;;;;;;;9.75;6.47;;;;;;;3.82;63.64;97900.97;10379416;28;20042;-73
2023/10/18 00:45:29;;;;;;;14.02;6.40;;;;;;;3.69;63.85;97888.78;10380636;28;20049;-72
2023/10/18 00:50:54;;;;;;;12.40;6.88;;;;;;;3.65;64.10;97893.91;10392817;28;20052;-72
2023/10/18 00:56:15;;;;;;;10.63;6.35;;;;;;;3.54;64.53;97883.16;10379491;28;20052;-72
2023/10/18 01:01:41;;;;;;;12.13;7.45;;;;;;;3.51;64.11;97878.75;10378428;28;20073;-72
2023/10/18 01:07:13;;;;;;;11.70;7.05;;;;;;;3.38;64.25;97887.88;10393222;28;20068;-72
2023/10/18 01:12:34;;;;;;;10.13;6.13;;;;;;;3.37;64.95;97877.34;10406735;28;20045;-72
2023/10/18 01:17:55;;;;;;;10.95;7.28;;;;;;;3.40;64.82;97860.47;10405441;28;20041;-72
2023/10/18 01:23:16;;;;;;;11.93;6.93;;;;;;;3.37;65.05;97858.03;10391441;28;20045;-72
2023/10/18 01:28:38;;;;;;;11.05;6.78;;;;;;;3.32;65.53;97867.97;10377256;28;20046;-71
2023/10/18 01:33:58;;;;;;;10.70;6.65;;;;;;;3.26;65.37;97856.31;10404682;28;20048;-72
2023/10/18 01:39:20;;;;;;;12.63;7.55;;;;;;;3.20;65.38;97844.72;10391153;28;20056;-72
2023/10/18 01:44:41;;;;;;;12.18;6.32;;;;;;;3.11;65.49;97837.69;10397975;28;20045;-73
2023/10/18 01:50:03;;;;;;;13.48;7.55;;;;;;;3.04;66.04;97841.13;10422608;28;20117;-73
2023/10/18 01:55:31;;;;;;;11.35;7.40;;;;;;;3.04;66.02;97848.66;10409004;28;20045;-72
2023/10/18 02:00:54;;;;;;;14.25;7.82;;;;;;;2.94;65.68;97826.34;10391946;28;20053;-72
2023/10/18 02:06:15;;;;;;;15.13;7.20;;;;;;;2.90;66.87;97823.19;10389915;28;20045;-72
2023/10/18 02:11:36;;;;;;;15.77;8.43;;;;;;;2.86;66.69;97836.56;10417835;28;20065;-72
2023/10/18 02:16:57;;;;;;;13.07;7.50;;;;;;;2.86;67.08;97837.31;10375417;28;20041;-72
2023/10/18 02:22:18;;;;;;;10.98;7.10;;;;;;;2.81;66.35;97829.19;10402682;28;20115;-72
2023/10/18 02:27:40;;;;;;;14.93;7.32;;;;;;;2.77;66.96;97831.53;10375595;28;20570;-72
2023/10/18 02:33:02;;;;;;;13.05;7.63;;;;;;;2.72;66.55;97829.69;10388550;28;20065;-72
2023/10/18 02:38:24;;;;;;;14.63;8.40;;;;;;;2.70;66.74;97821.94;10401639;28;20057;-73
2023/10/18 02:43:51;;;;;;;14.55;8.57;;;;;;;2.62;67.12;97826.66;10374366;28;20471;-73
2023/10/18 02:49:12;;;;;;;13.40;8.55;;;;;;;2.57;67.04;97808.25;10402563;28;20095;-73
2023/10/18 02:54:35;;;;;;;15.48;8.65;;;;;;;2.55;67.05;97822.56;10387832;28;20127;-73
2023/10/18 02:59:58;;;;;;;12.25;7.95;;;;;;;2.54;67.33;97821.09;10401557;28;20407;-72
2023/10/18 03:05:20;;;;;;;15.52;7.97;;;;;;;2.56;67.61;97826.78;10387612;28;20057;-72
2023/10/18 03:10:45;;;;;;;13.80;8.60;;;;;;;2.50;67.67;97822.69;10401142;28;20049;-72
2023/10/18 03:16:15;;;;;;;17.85;8.57;;;;;;;2.44;67.89;97820.09;10374718;28;20116;-72
2023/10/18 03:21:37;;;;;;;13.30;8.80;;;;;;;2.39;68.07;97807.16;10402099;28;20073;-72
2023/10/18 03:27:07;;;;;;;15.25;8.93;;;;;;;2.36;68.24;97816.50;10387381;28;20595;-73
2023/10/18 03:32:28;;;;;;;15.88;9.20;;;;;;;2.34;68.30;97804.56;10415512;28;20041;-72
2023/10/18 03:37:50;;;;;;;16.95;9.85;;;;;;;2.32;67.91;97799.59;10387053;28;20045;-72
2023/10/18 03:43:11;;;;;;;17.08;9.38;;;;;;;2.34;68.44;97788.78;10386695;28;20049;-72
2023/10/18 03:48:39;;;;;;;16.58;9.90;;;;;;;2.32;68.53;97798.81;10386338;28;20034;-72
2023/10/18 03:54:01;;;;;;;16.10;10.38;;;;;;;2.25;68.31;97786.50;10408322;28;20124;-72
2023/10/18 03:59:22;;;;;;;17.80;9.88;;;;;;;2.14;68.33;97789.50;10394272;28;20120;-72
2023/10/18 04:04:47;;;;;;;18.50;11.20;;;;;;;2.15;69.01;97793.75;10407980;28;20053;-72
2023/10/18 04:10:13;;;;;;;17.77;10.48;;;;;;;2.11;69.15;97779.56;10395541;28;20490;-72
2023/10/18 04:15:37;;;;;;;18.80;11.45;;;;;;;2.08;68.86;97777.88;10408100;28;20038;-72
2023/10/18 04:21:01;;;;;;;20.70;11.60;;;;;;;2.09;68.94;97771.09;10422211;28;20065;-72
2023/10/18 04:26:25;;;;;;;18.45;12.23;;;;;;;2.09;68.65;97766.31;10393821;28;20479;-73
2023/10/18 04:31:46;;;;;;;18.70;12.38;;;;;;;2.10;68.72;97767.06;10407251;28;20076;-72
2023/10/18 04:37:09;;;;;;;20.42;13.27;;;;;;;2.03;69.29;97762.22;10393457;28;20041;-72
2023/10/18 04:42:30;;;;;;;19.25;11.45;;;;;;;1.98;69.33;97755.56;10393082;28;20049;-72
2023/10/18 04:47:57;;;;;;;20.30;12.32;;;;;;;1.93;69.43;97770.19;10379489;28;20046;-72
2023/10/18 04:53:23;;;;;;;20.30;11.50;;;;;;;1.95;69.67;97757.41;10407150;28;20050;-72
2023/10/18 04:58:45;;;;;;;18.10;10.98;;;;;;;1.94;69.43;97755.19;10393489;28;20045;-72
2023/10/18 05:04:19;;;;;;;19.08;13.35;;;;;;;1.90;69.73;97754.75;10419447;28;20060;-72
2023/10/18 05:09:43;;;;;;;19.33;12.57;;;;;;;1.88;69.74;97752.53;10401426;28;20075;-72
2023/10/18 05:20:41;;;;;;;17.67;11.23;;;;;;;2.05;69.66;97754.91;10419896;28;20552;-72
2023/10/18 05:42:20;;;;;;;18.30;10.48;;;;;;;3.50;69.77;97763.38;10391638;28;20037;-72
2023/10/18 05:47:44;;;;;;;17.98;11.40;;;;;;;4.55;69.87;97758.56;10378468;28;20045;-72
2023/10/18 05:53:11;;;;;;;18.83;10.73;;;;;;;5.85;69.31;97756.13;10417478;28;20113;-72
2023/10/18 05:58:32;;;;;;;19.45;11.93;;;;;;;7.02;69.15;97760.97;10392028;28;20041;-72
2023/10/18 06:03:58;;;;;;;17.20;11.90;;;;;;;11.38;67.55;97762.69;10389573;28;20045;-70
2023/10/18 06:09:27;;;;;;;20.05;11.48;;;;;;;14.21;58.61;97771.00;10377092;28;20046;-70
2023/10/18 06:14:52;;;;;;;17.90;12.43;;;;;;;13.65;56.52;97772.16;10403002;28;20176;-69
2023/10/18 06:20:28;;;;;;;19.73;12.20;;;;;;;14.73;55.15;97761.09;10402912;28;20041;-71
2023/10/18 06:25:49;;;;;;;16.75;12.70;;;;;;;17.70;50.58;97766.28;10393309;28;20073;-70
2023/10/18 06:31:10;;;;;;;17.33;12.23;;;;;;;19.57;44.55;97758.22;10374679;28;20048;-71
2023/10/18 06:36:34;;;;;;;17.35;12.77;;;;;;;21.12;38.58;97750.03;10374438;28;20526;-71
2023/10/18 06:41:55;;;;;;;16.90;11.57;;;;;;;21.67;32.41;97753.53;10374804;28;20052;-71
2023/10/18 06:47:16;;;;;;;16.85;12.15;;;;;;;22.40;32.73;97746.69;10416200;28;20100;-71
2023/10/18 06:52:44;;;;;;;14.55;11.57;;;;;;;24.11;28.41;97746.88;10401522;28;20065;-71
2023/10/18 07:03:47;;;;;;;16.13;11.05;;;;;;;24.47;24.56;97743.84;10415542;28;20045;-71
2023/10/18 07:09:16;;;;;;;17.33;11.70;;;;;;;25.59;23.58;97744.31;10401061;28;20045;-71
2023/10/18 07:14:38;;;;;;;15.55;10.85;;;;;;;27.66;20.61;97756.00;10401817;28;20042;-72
2023/10/18 07:19:59;;;;;;;13.50;9.85;;;;;;;29.01;19.67;97742.75;10373481;28;20103;-71
2023/10/18 07:25:22;;;;;;;11.90;9.13;;;;;;;30.36;18.19;97744.56;10414713;28;20053;-71
2023/10/18 07:30:44;;;;;;;13.90;9.82;;;;;;;30.88;17.01;97737.44;10400733;28;20041;-72
2023/10/18 07:36:09;;;;;;;14.35;9.60;;;;;;;30.52;16.41;97741.50;10399665;28;20367;-72
2023/10/18 07:41:34;;;;;;;14.23;10.05;;;;;;;29.58;15.88;97730.16;10386298;28;20399;-71
2023/10/18 07:46:55;;;;;;;12.93;10.32;;;;;;;29.18;16.54;97737.63;10400638;28;20045;-72
2023/10/18 07:52:17;;;;;;;12.73;9.38;;;;;;;28.59;16.72;97731.44;10385983;28;20079;-72
2023/10/18 07:57:46;;;;;;;;;;;;;;;30.67;15.66;97728.34;10400363;28;20041;-71
2023/10/18 08:03:09;;;;;;;14.30;9.45;;;;;;;29.46;15.92;97707.25;10413783;28;19967;-72
2023/10/18 08:08:31;;;;;;;14.00;9.30;;;;;;;30.48;15.36;97716.31;10414432;28;20059;-71
2023/10/18 08:13:52;;;;;;;12.88;9.15;;;;;;;29.81;15.89;97710.53;10399793;28;20064;-72
2023/10/18 08:19:22;;;;;;;12.93;8.80;;;;;;;29.55;15.69;97711.50;10413340;28;20069;-72
2023/10/18 08:24:49;;;;;;;13.73;10.13;;;;;;;30.16;15.44;97725.34;10400141;28;20053;-70
2023/10/18 08:30:22;;;;;;;14.07;9.07;;;;;;;29.53;15.93;97708.63;10413915;28;20407;-71
2023/10/18 08:35:43;;;;;;;14.05;9.15;;;;;;;29.21;15.93;97698.78;10400687;28;20042;-71
2023/10/18 08:41:16;;;;;;;11.95;9.20;;;;;;;29.20;16.26;97700.25;10407038;28;20087;-71
2023/10/18 08:46:41;;;;;;;12.88;7.90;;;;;;;31.04;15.79;97696.88;10407784;28;20052;-71
2023/10/18 08:52:11;;;;;;;9.35;7.72;;;;;;;31.13;14.62;97691.72;10420748;28;20053;-71
2023/10/18 08:57:35;;;;;;;11.55;7.70;;;;;;;32.03;14.18;97690.25;10407716;28;20057;-71
2023/10/18 09:02:57;;;;;;;12.27;8.77;;;;;;;31.26;14.55;97677.84;10392297;28;20552;-71
2023/10/18 09:08:19;;;;;;;11.07;7.68;;;;;;;33.03;13.91;97680.97;10378473;28;20095;-73
2023/10/18 09:14:06;;;;;;;12.05;7.72;;;;;;;33.98;12.87;97664.94;10391755;28;20037;-74
2023/10/18 09:19:27;;;;;;;9.60;6.60;;;;;;;34.12;12.71;97656.56;10397891;28;20103;-74
2023/10/18 09:24:49;;;;;;;11.57;6.90;;;;;;;31.71;13.59;97656.91;10392236;28;20045;-75
2023/10/18 09:30:13;;;;;;;10.63;7.70;;;;;;;30.39;14.11;97643.00;10404419;28;20037;-73
2023/10/18 09:35:34;;;;;;;10.05;6.85;;;;;;;28.65;16.04;97640.25;10391590;28;20427;-74
2023/10/18 09:40:55;;;;;;;12.45;6.95;;;;;;;28.15;16.48;97636.16;10404167;28;20038;-74
2023/10/18 09:46:18;;;;;;;12.40;7.15;;;;;;;28.16;16.88;97639.72;10390661;28;20060;-73
2023/10/18 09:51:44;;;;;;;9.52;6.40;;;;;;;30.58;16.07;97642.78;10403440;28;20045;-73
2023/10/18 09:57:06;;;;;;;9.73;6.70;;;;;;;32.52;14.52;97643.06;10391165;28;20098;-73
2023/10/18 10:02:27;;;;;;;8.88;6.50;;;;;;;31.73;13.71;97642.44;10390492;28;20057;-73
2023/10/18 10:07:48;;;;;;;;;;;;;;;30.38;15.08;97635.81;10403514;28;20123;-73
2023/10/18 10:13:19;;;;;;;8.43;6.13;;;;;;;30.00;15.17;97621.88;10403078;28;20055;-73
2023/10/18 10:18:42;;;;;;;8.18;5.90;;;;;;;30.94;14.55;97609.88;10390186;28;20299;-72
2023/10/18 10:24:29;;;;;;;7.72;5.82;;;;;;;29.83;15.43;97610.56;10389278;28;20176;-72
2023/10/18 10:29:56;;;;;;;9.07;5.70;;;;;;;30.86;15.26;97604.94;10405119;28;20052;-73
2023/10/18 10:35:17;;;;;;;7.18;5.80;;;;;;;30.19;15.25;97595.03;10390285;28;20128;-73
2023/10/18 10:40:39;;;;;;;7.45;5.63;;;;;;;29.27;15.74;97585.97;10401961;28;20072;-72
2023/10/18 10:46:00;;;;;;;7.10;6.30;;;;;;;29.91;15.91;97581.69;10401663;28;20068;-73
2023/10/18 10:51:21;;;;;;;10.95;5.75;;;;;;;30.09;15.83;97574.31;10416127;28;20069;-73
2023/10/18 10:56:49;;;;;;;7.75;5.95;;;;;;;30.55;15.40;97560.75;10401251;28;20060;-72
2023/10/18 11:02:16;;;;;;;7.10;5.38;;;;;;;30.36;15.84;97555.25;10361518;28;20073;-73
2023/10/18 11:07:39;;;;;;;9.95;5.28;;;;;;;30.86;15.21;97540.84;10415732;28;20049;-73
2023/10/18 11:13:00;;;;;;;5.97;5.00;;;;;;;30.85;15.44;97537.25;10401208;28;20045;-73
2023/10/18 11:18:22;;;;;;;11.52;5.72;;;;;;;30.52;14.99;97525.50;10415410;28;20049;-71
2023/10/18 11:23:43;;;;;;;7.10;5.47;;;;;;;29.70;15.80;97517.22;10400916;28;20103;-71
2023/10/18 11:29:05;;;;;;;7.65;5.82;;;;;;;28.44;16.31;97504.72;10414934;28;20065;-70
2023/10/18 11:34:26;;;;;;;8.98;6.10;;;;;;;26.91;17.64;97490.22;10400101;28;20073;-71
2023/10/18 11:39:48;;;;;;;12.45;7.05;;;;;;;26.82;17.19;97485.94;10399844;28;20088;-71
2023/10/18 11:45:17;;;;;;;12.57;7.37;;;;;;;22.55;21.67;97483.91;10399685;28;20535;-70
2023/10/18 11:50:47;;;;;;;11.75;6.75;;;;;;;20.94;24.19;97479.28;10386312;28;20038;-71
2023/10/18 11:56:09;;;;;;;9.73;7.63;;;;;;;20.33;24.73;97460.81;10400175;28;20064;-70
2023/10/18 12:01:37;;;;;;;10.43;7.72;;;;;;;20.00;25.93;97443.72;10399351;28;20483;-70
2023/10/18 12:06:58;;;;;;;13.65;8.07;;;;;;;20.05;26.62;97432.50;10387855;28;20046;-70
2023/10/18 12:12:19;;;;;;;10.13;6.32;;;;;;;19.17;27.42;97430.81;10389934;28;20046;-70
2023/10/18 12:17:40;;;;;;;9.55;6.72;;;;;;;17.26;29.43;97430.22;10393568;28;20099;-70
2023/10/18 12:23:10;;;;;;;10.35;6.35;;;;;;;16.43;31.03;97429.88;10393247;28;20069;-71
2023/10/18 12:28:37;;;;;;;10.93;7.32;;;;;;;16.45;31.69;97429.94;10407506;28;20140;-70
2023/10/18 12:33:59;;;;;;;12.02;7.45;;;;;;;16.29;31.97;97413.09;10406871;28;20124;-70
2023/10/18 12:39:20;;;;;;;11.88;7.05;;;;;;;15.85;33.76;97401.50;10421316;28;20171;-71
2023/10/18 12:44:46;;;;;;;11.70;8.15;;;;;;;15.45;35.00;97389.97;10407411;28;20045;-69
2023/10/18 12:50:07;;;;;;;8.93;7.05;;;;;;;15.48;35.09;97371.06;10410563;28;20041;-70
2023/10/18 12:55:36;;;;;;;13.45;7.32;;;;;;;14.96;35.60;97370.25;10422078;28;20045;-69
2023/10/18 13:01:06;;;;;;;8.88;7.20;;;;;;;14.75;36.84;97362.25;10426476;28;20037;-70
2023/10/18 13:06:30;;;;;;;12.07;7.15;;;;;;;14.47;36.85;97339.94;10412130;28;20049;-70
2023/10/18 13:17:13;;;;;;;13.73;7.28;;;;;;;14.20;37.81;97328.84;10391699;28;20490;-71
2023/10/18 13:22:37;;;;;;;13.35;7.85;;;;;;;14.24;38.05;97315.00;10391955;28;20072;-71
2023/10/18 13:28:05;;;;;;;10.32;7.03;;;;;;;14.23;38.72;97317.06;10405062;28;20156;-71
2023/10/18 13:33:28;;;;;;;13.00;8.07;;;;;;;14.09;39.47;97313.63;10393065;28;20617;-72
2023/10/18 13:38:50;;;;;;;12.95;7.97;;;;;;;14.14;39.40;97298.41;10405022;28;20113;-71
2023/10/18 13:44:11;;;;;;;9.73;6.78;;;;;;;13.91;40.15;97295.91;10390232;28;20045;-72
2023/10/18 13:49:33;;;;;;;12.00;7.47;;;;;;;13.87;39.97;97288.03;10404219;28;20041;-72
2023/10/18 13:54:54;;;;;;;11.85;7.38;;;;;;;13.54;40.90;97291.38;10403864;28;20037;-71
2023/10/18 14:00:21;;;;;;;10.15;7.68;;;;;;;13.37;41.49;97281.44;10403853;28;20069;-71
2023/10/18 14:05:45;;;;;;;14.05;7.95;;;;;;;13.23;41.52;97263.94;10418039;28;20138;-71
2023/10/18 14:11:06;;;;;;;10.70;7.32;;;;;;;13.18;42.21;97262.94;10403827;28;20065;-71
2023/10/18 14:16:27;;;;;;;11.45;7.15;;;;;;;13.05;43.05;97265.78;10402949;28;20469;-72
2023/10/18 14:21:48;;;;;;;10.63;7.00;;;;;;;12.95;42.63;97268.09;10389070;28;20042;-72
2023/10/18 14:27:09;;;;;;;11.25;7.68;;;;;;;12.84;43.93;97247.97;10402796;28;20045;-72
2023/10/18 14:32:30;;;;;;;14.18;8.35;;;;;;;12.74;44.89;97249.50;10388603;28;20061;-71
2023/10/18 14:37:51;;;;;;;12.13;6.95;;;;;;;12.67;43.99;97239.34;10387702;28;20041;-72
2023/10/18 14:43:12;;;;;;;12.20;7.03;;;;;;;12.66;44.85;97238.63;10388689;28;20478;-71
2023/10/18 14:48:34;;;;;;;8.63;6.35;;;;;;;12.62;44.78;97230.00;10388236;28;20041;-72
2023/10/18 14:53:55;;;;;;;9.18;6.60;;;;;;;12.67;45.24;97217.69;10401743;28;20512;-71
2023/10/18 14:59:16;;;;;;;9.48;6.35;;;;;;;12.64;44.88;97207.69;10401555;28;20053;-71
2023/10/18 15:04:37;;;;;;;11.48;6.65;;;;;;;12.65;45.32;97197.97;10401600;28;20084;-71
2023/10/18 15:09:57;;;;;;;11.77;7.22;;;;;;;12.59;46.05;97194.88;10401087;28;20061;-71
2023/10/18 15:15:19;;;;;;;9.95;7.00;;;;;;;12.41;45.64;97202.31;10387388;28;20068;-71
2023/10/18 15:20:41;;;;;;;10.27;6.70;;;;;;;12.29;46.19;97191.22;10387489;28;20049;-71
2023/10/18 15:26:06;;;;;;;9.13;6.75;;;;;;;12.01;47.55;97180.00;10400984;28;20440;-72
2023/10/18 15:31:27;;;;;;;10.63;6.78;;;;;;;11.88;47.70;97180.00;10387407;28;20046;-73
2023/10/18 15:36:49;;;;;;;15.95;7.55;;;;;;;11.75;47.94;97170.19;10400739;28;20500;-71
2023/10/18 15:42:10;;;;;;;9.65;6.63;;;;;;;11.54;48.11;97168.38;10400942;28;20065;-72
2023/10/18 15:47:31;;;;;;;12.25;7.50;;;;;;;11.28;49.45;97156.47;10405065;28;20045;-72
2023/10/18 15:52:52;;;;;;;12.73;6.38;;;;;;;11.07;49.09;97163.00;10422556;28;20041;-71
2023/10/18 15:58:15;;;;;;;12.25;7.53;;;;;;;10.92;50.37;97157.97;10408450;28;20124;-71
2023/10/18 16:03:36;;;;;;;11.40;6.32;;;;;;;10.74;50.70;97149.28;10408246;28;20049;-71
2023/10/18 16:08:58;;;;;;;19.30;7.72;;;;;;;10.58;51.16;97148.34;10421954;28;20049;-73
2023/10/18 16:14:18;;;;;;;13.15;6.90;;;;;;;10.43;51.86;97144.00;10422602;28;20042;-72
2023/10/18 16:19:39;;;;;;;11.15;6.90;;;;;;;10.29;52.67;97145.94;10394083;28;20468;-71
2023/10/18 16:25:00;;;;;;;15.52;6.90;;;;;;;10.18;52.15;97138.28;10422477;28;20056;-72
2023/10/18 16:30:21;;;;;;;11.52;6.68;;;;;;;10.08;53.01;97135.63;10380048;28;20502;-72
2023/10/18 16:35:42;;;;;;;11.15;6.45;;;;;;;9.96;53.23;97138.44;10407170;28;20038;-71
2023/10/18 16:41:04;;;;;;;10.38;6.18;;;;;;;9.87;53.58;97136.50;10407016;28;20072;-71
2023/10/18 16:46:26;;;;;;;11.65;6.55;;;;;;;9.77;54.23;97144.25;10407064;28;20073;-71
2023/10/18 16:51:48;;;;;;;10.23;5.95;;;;;;;9.71;53.56;97135.50;10411829;28;20446;-71
2023/10/18 16:57:09;;;;;;;11.93;6.50;;;;;;;9.60;54.43;97130.63;10391936;28;20068;-71
2023/10/18 17:02:30;;;;;;;11.07;5.90;;;;;;;9.51;53.94;97125.91;10405868;28;20514;-72
2023/10/18 17:07:52;;;;;;;13.60;6.38;;;;;;;9.41;54.31;97132.31;10406149;28;20053;-71
2023/10/18 17:13:12;;;;;;;9.13;5.22;;;;;;;9.33;54.49;97142.19;10378662;28;20380;-72
2023/10/18 17:18:34;;;;;;;14.93;6.70;;;;;;;9.29;54.58;97137.13;10391980;28;20041;-71
2023/10/18 17:23:56;;;;;;;11.75;6.18;;;;;;;9.20;55.00;97142.78;10405756;28;20108;-71
2023/10/18 17:29:17;;;;;;;11.30;6.25;;;;;;;9.10;54.97;97132.47;10378569;28;20064;-72
2023/10/18 17:34:40;;;;;;;13.07;6.68;;;;;;;9.01;55.34;97121.41;10404910;28;20037;-70
2023/10/18 17:40:00;;;;;;;11.85;5.68;;;;;;;8.92;55.53;97111.81;10404917;28;20048;-71
2023/10/18 17:45:24;;;;;;;11.85;6.97;;;;;;;8.86;56.10;97109.38;10404805;28;20129;-72
2023/10/18 17:50:46;;;;;;;11.68;6.60;;;;;;;8.77;55.86;97106.66;10405057;28;20037;-71
2023/10/18 17:56:07;;;;;;;14.88;7.40;;;;;;;8.71;56.82;97103.50;10418910;28;20072;-71
2023/10/18 18:01:28;;;;;;;11.70;7.00;;;;;;;8.65;57.50;97095.47;10403945;28;20048;-71
2023/10/18 18:06:51;;;;;;;10.55;6.47;;;;;;;8.60;57.39;97091.00;10389721;28;20072;-71
2023/10/18 18:12:13;;;;;;;11.45;6.72;;;;;;;8.55;56.82;97081.66;10403726;28;20061;-71
2023/10/18 18:17:34;;;;;;;13.27;6.88;;;;;;;8.50;57.24;97082.00;10403143;28;20045;-71
2023/10/18 18:22:55;;;;;;;18.33;7.68;;;;;;;8.45;57.61;97066.38;10403423;28;20415;-71
2023/10/18 18:28:18;;;;;;;12.60;6.13;;;;;;;8.36;58.11;97067.88;10389371;28;20064;-71
2023/10/18 18:33:40;;;;;;;10.57;6.30;;;;;;;8.37;58.64;97076.97;10389768;28;20046;-71
2023/10/18 18:39:04;;;;;;;12.55;6.97;;;;;;;8.36;58.11;97069.94;10418091;28;20237;-71
2023/10/18 18:44:28;;;;;;;12.10;7.20;;;;;;;8.26;58.83;97073.50;10397465;28;20053;-74
2023/10/18 18:49:49;;;;;;;12.50;7.30;;;;;;;8.19;58.54;97070.91;10414702;28;20052;-73
2023/10/18 18:55:11;;;;;;;13.43;7.40;;;;;;;8.15;59.41;97065.09;10403582;28;20037;-71
2023/10/18 19:00:33;;;;;;;10.95;6.97;;;;;;;8.10;58.75;97061.31;10388523;28;20041;-71
2023/10/18 19:05:55;;;;;;;15.00;7.85;;;;;;;8.02;59.11;97055.97;10387776;28;20060;-71
2023/10/18 19:11:27;;;;;;;13.52;7.80;;;;;;;8.03;59.15;97051.13;10388212;28;20373;-72
2023/10/18 19:16:57;;;;;;;15.48;7.70;;;;;;;7.98;59.50;97049.38;10402941;28;20041;-71
2023/10/18 19:22:19;;;;;;;13.13;8.13;;;;;;;7.94;59.40;97051.91;10387113;28;20048;-71
2023/10/18 19:27:41;;;;;;;14.95;8.02;;;;;;;7.89;59.59;97039.06;10401246;28;20411;-71
2023/10/18 19:33:10;;;;;;;14.77;8.00;;;;;;;7.74;60.27;97043.69;10402309;28;20045;-71
2023/10/18 19:38:31;;;;;;;14.07;8.05;;;;;;;7.67;59.69;97027.91;10387265;28;20060;-71
2023/10/18 19:43:53;;;;;;;12.75;8.82;;;;;;;7.62;60.39;97037.28;10387350;28;20042;-72
2023/10/18 19:49:14;;;;;;;14.35;8.32;;;;;;;7.59;60.26;97027.38;10373523;28;20042;-71
2023/10/18 19:54:35;;;;;;;13.40;7.93;;;;;;;7.56;60.58;97011.91;10400570;28;20041;-71
2023/10/18 19:59:56;;;;;;;14.98;7.43;;;;;;;7.51;60.30;96993.50;10415366;28;20041;-71
2023/10/18 20:05:17;;;;;;;15.95;8.57;;;;;;;7.52;60.10;96983.13;10373038;28;20069;-71
2023/10/18 20:10:38;;;;;;;16.33;8.68;;;;;;;7.45;60.20;96987.56;10400666;28;20041;-70
2023/10/18 20:15:59;;;;;;;16.80;8.60;;;;;;;7.44;60.66;96989.59;10401329;28;20041;-72
2023/10/18 20:21:20;;;;;;;14.30;7.32;;;;;;;7.37;60.97;96990.50;10401205;28;20046;-71
2023/10/18 20:26:42;;;;;;;15.15;9.15;;;;;;;7.31;60.86;96992.13;10372995;28;20471;-72
2023/10/18 20:32:05;;;;;;;15.18;9.27;;;;;;;7.26;61.01;96985.59;10402081;28;20069;-71
2023/10/18 20:37:26;;;;;;;16.20;8.55;;;;;;;7.21;61.27;96981.06;10407286;28;20037;-71
2023/10/18 20:42:48;;;;;;;12.95;8.05;;;;;;;7.08;61.35;96985.06;10421587;28;20045;-70
2023/10/18 20:48:11;;;;;;;16.83;9.23;;;;;;;7.02;61.49;96979.09;10421533;28;20045;-72
2023/10/18 20:53:32;;;;;;;15.00;8.48;;;;;;;6.86;61.50;96975.97;10406676;28;20038;-71
2023/10/18 20:58:56;;;;;;;14.82;8.38;;;;;;;6.70;62.14;96960.22;10421300;28;20399;-71
2023/10/18 21:04:17;;;;;;;19.50;8.60;;;;;;;6.53;62.34;96958.34;10406084;28;20061;-71
2023/10/18 21:09:40;;;;;;;15.32;8.43;;;;;;;6.43;63.13;96955.59;10406130;28;20120;-71
2023/10/18 21:15:07;;;;;;;15.32;8.50;;;;;;;6.38;63.14;96958.69;10405992;28;20368;-72
2023/10/18 21:20:28;;;;;;;16.13;8.57;;;;;;;6.37;63.63;96946.88;10379038;28;20045;-71
2023/10/18 21:25:50;;;;;;;16.50;8.10;;;;;;;6.33;63.43;96949.34;10378322;28;20488;-71
2023/10/18 21:31:11;;;;;;;12.70;8.07;;;;;;;6.31;64.12;96946.44;10405199;28;20038;-71
2023/10/18 21:36:33;;;;;;;17.75;11.38;;;;;;;6.27;63.94;96932.28;10405079;28;20430;-72
2023/10/18 21:41:55;;;;;;;17.70;10.27;;;;;;;6.27;64.24;96916.41;10377876;28;20046;-70
2023/10/18 21:47:16;;;;;;;18.55;9.95;;;;;;;6.25;64.37;96909.97;10403867;28;20050;-71
2023/10/18 21:52:37;;;;;;;17.15;10.20;;;;;;;6.20;64.24;96900.66;10390771;28;20048;-71
2023/10/18 21:57:58;;;;;;;16.25;9.30;;;;;;;6.02;64.58;96900.09;10376911;28;20049;-71
2023/10/18 22:03:25;;;;;;;20.10;9.23;;;;;;;5.98;64.91;96891.50;10403832;28;20049;-71
2023/10/18 22:08:46;;;;;;;21.05;9.70;;;;;;;5.92;65.74;96879.97;10392123;28;20484;-71
2023/10/18 22:14:20;;;;;;;14.13;8.10;;;;;;;5.88;66.00;96860.25;10389856;28;20146;-71
2023/10/18 22:19:50;;;;;;;;;;;;;;;5.80;66.59;96865.25;10405430;28;20041;-71
2023/10/18 22:25:19;;;;;;;14.48;8.07;;;;;;;5.71;65.71;96857.66;10404239;28;19925;-71
2023/10/18 22:30:47;;;;;;;14.82;7.93;;;;;;;5.69;66.04;96855.47;10404097;28;20045;-71
2023/10/18 22:36:09;;;;;;;12.07;7.78;;;;;;;5.65;66.89;96846.13;10389785;28;20403;-72
2023/10/18 22:41:36;;;;;;;14.30;7.57;;;;;;;5.67;67.30;96835.22;10375342;28;20052;-71
2023/10/18 22:46:57;;;;;;;13.32;8.45;;;;;;;5.64;67.01;96830.84;10417232;28;20052;-71
2023/10/18 22:52:27;;;;;;;15.32;7.35;;;;;;;5.65;66.34;96832.28;10402021;28;20049;-72
2023/10/18 22:57:49;;;;;;;18.38;8.70;;;;;;;5.60;67.03;96836.81;10402266;28;20041;-71
2023/10/18 23:03:10;;;;;;;11.23;7.10;;;;;;;5.58;66.69;96822.09;10388052;28;20049;-71
2023/10/18 23:08:38;;;;;;;14.40;8.13;;;;;;;5.54;67.62;96814.25;10387960;28;20046;-72
2023/10/18 23:14:23;;;;;;;13.48;7.72;;;;;;;5.45;67.53;96801.13;10402184;28;20103;-71
2023/10/18 23:19:45;;;;;;;14.75;7.75;;;;;;;5.44;67.69;96789.31;10415916;28;20037;-71
2023/10/18 23:31:06;;;;;;;13.43;7.93;;;;;;;5.32;67.23;96755.25;10378741;28;20038;-71
2023/10/18 23:36:36;;;;;;;15.63;8.20;;;;;;;5.27;68.01;96750.72;10393461;28;20042;-71
2023/10/18 23:42:09;;;;;;;12.75;7.30;;;;;;;5.19;68.22;96739.06;10401886;28;20116;-71
2023/10/18 23:58:33;;;;;;;20.02;7.75;;;;;;;5.14;68.64;96726.28;10415139;28;20068;-72
